Time;durP1;ratioP1;P1;durP2;ratioP2;P2;SDS_P1;SDS_P2;PMS_P1;PMS_P2;Temp;Humidity;BMP_temperature;BMP_pressure;BME280_temperature;BME280_humidity;BME280_pressure;Samples;Min_cycle;Max_cycle;Signal;HPM_P1;HPM_P2
2021/07/19 00:01:29;;;;;;;4.13;3.75;;;20.80;99.90;;;;;;5053930;28;20163;-83
2021/07/19 00:03:55;;;;;;;4.90;4.45;;;20.90;99.90;;;;;;5054020;28;20175;-83
2021/07/19 00:06:21;;;;;;;4.88;4.47;;;20.80;99.90;;;;;;5055333;28;20615;-83
2021/07/19 00:08:46;;;;;;;4.55;4.15;;;20.80;99.90;;;;;;5054176;28;20179;-83
2021/07/19 00:11:13;;;;;;;5.35;4.30;;;20.90;99.90;;;;;;5055253;28;20163;-83
2021/07/19 00:13:39;;;;;;;4.80;4.18;;;21.00;99.90;;;;;;5053903;28;20213;-83
2021/07/19 00:16:06;;;;;;;3.97;3.58;;;20.90;99.90;;;;;;5053635;28;20211;-82
2021/07/19 00:18:31;;;;;;;8.60;3.65;;;21.00;99.90;;;;;;5055127;28;20167;-83
2021/07/19 00:20:58;;;;;;;9.57;4.05;;;20.90;99.90;;;;;;5055044;28;20171;-83
2021/07/19 00:23:25;;;;;;;6.43;3.50;;;20.80;99.90;;;;;;5054981;28;20195;-82
2021/07/19 00:25:51;;;;;;;6.38;3.58;;;20.70;99.90;;;;;;5055074;28;20184;-83
2021/07/19 00:28:17;;;;;;;4.07;3.78;;;20.80;99.90;;;;;;5054981;28;20167;-83
2021/07/19 00:30:42;;;;;;;4.40;3.67;;;20.80;99.90;;;;;;5054612;28;20677;-83
2021/07/19 00:33:08;;;;;;;3.58;3.28;;;20.70;99.90;;;;;;5054624;28;20742;-82
2021/07/19 00:35:34;;;;;;;4.10;3.53;;;20.70;99.90;;;;;;5054762;28;20210;-82
2021/07/19 00:38:00;;;;;;;7.93;4.13;;;20.70;99.90;;;;;;5052965;28;20546;-82
2021/07/19 00:40:28;;;;;;;6.18;4.00;;;20.70;99.90;;;;;;5054884;28;20194;-82
2021/07/19 00:42:54;;;;;;;5.72;3.75;;;20.60;99.90;;;;;;5053899;28;20225;-82
2021/07/19 00:45:24;;;;;;;6.00;3.75;;;20.60;99.90;;;;;;5054826;28;20283;-83
2021/07/19 00:47:51;;;;;;;3.72;3.42;;;20.70;99.90;;;;;;5053753;28;20163;-82
2021/07/19 00:50:18;;;;;;;6.35;3.35;;;20.50;99.90;;;;;;5054782;28;20163;-82
2021/07/19 00:52:44;;;;;;;8.45;4.57;;;20.40;99.90;;;;;;5053571;28;20635;-82
2021/07/19 00:55:12;;;;;;;5.63;4.32;;;20.20;99.90;;;;;;5054535;28;20659;-82
2021/07/19 00:57:39;;;;;;;7.40;4.15;;;20.30;99.90;;;;;;5053123;28;20155;-82
2021/07/19 01:00:10;;;;;;;4.68;4.25;;;20.30;99.90;;;;;;5053094;28;20170;-82
2021/07/19 01:02:40;;;;;;;8.93;4.35;;;20.30;99.90;;;;;;5052950;28;20167;-82
2021/07/19 01:05:08;;;;;;;5.05;4.13;;;20.40;99.90;;;;;;5054623;28;20521;-82
2021/07/19 01:07:35;;;;;;;5.55;4.97;;;20.50;99.90;;;;;;5054658;28;20167;-82
2021/07/19 01:10:03;;;;;;;7.63;4.80;;;20.60;99.90;;;;;;5054811;28;20170;-83
2021/07/19 01:12:29;;;;;;;4.07;3.65;;;20.50;99.90;;;;;;5054107;28;20179;-82
2021/07/19 01:14:55;;;;;;;3.88;3.50;;;20.60;99.90;;;;;;5054352;28;20244;-82
2021/07/19 01:17:20;;;;;;;4.60;3.17;;;20.40;99.90;;;;;;5054288;28;20175;-82
2021/07/19 01:19:51;;;;;;;5.65;3.78;;;20.30;99.90;;;;;;5053253;28;20615;-82
2021/07/19 01:22:44;;;;;;;4.28;3.85;;;20.30;99.90;;;;;;5054513;28;20163;-82
2021/07/19 01:25:50;;;;;;;6.68;3.33;;;20.10;99.90;;;;;;5054361;28;20682;-82
2021/07/19 01:28:41;;;;;;;4.72;3.90;;;20.20;99.90;;;;;;5054288;28;20285;-82
2021/07/19 01:31:29;;;;;;;6.63;4.25;;;20.40;99.90;;;;;;5054055;28;20170;-82
2021/07/19 01:33:59;;;;;;;9.20;4.03;;;20.30;99.90;;;;;;5052995;28;20551;-82
2021/07/19 01:36:29;;;;;;;10.15;3.55;;;20.20;99.90;;;;;;5052302;28;20528;-82
2021/07/19 01:38:56;;;;;;;4.80;3.97;;;20.10;99.90;;;;;;5053512;28;20677;-82
2021/07/19 01:41:22;;;;;;;4.22;3.92;;;20.20;99.90;;;;;;5053524;28;20708;-83
2021/07/19 01:43:49;;;;;;;5.18;4.70;;;20.20;99.90;;;;;;5053395;28;20229;-82
2021/07/19 01:46:16;;;;;;;7.53;4.60;;;20.30;99.90;;;;;;5052820;28;20171;-82
2021/07/19 01:48:43;;;;;;;8.88;5.43;;;20.40;99.90;;;;;;5052132;28;20642;-81
2021/07/19 01:51:10;;;;;;;5.75;4.38;;;20.40;99.90;;;;;;5053340;28;20186;-82
2021/07/19 01:53:36;;;;;;;5.20;4.53;;;20.40;99.90;;;;;;5054340;28;20256;-82
2021/07/19 01:56:03;;;;;;;5.55;5.00;;;20.50;99.90;;;;;;5054024;28;20547;-82
2021/07/19 01:58:30;;;;;;;5.55;4.93;;;20.40;99.90;;;;;;5052504;28;20178;-83
2021/07/19 02:00:56;;;;;;;5.55;4.82;;;20.30;99.90;;;;;;5053477;28;20163;-80
2021/07/19 02:03:23;;;;;;;8.30;4.38;;;20.30;99.90;;;;;;5052047;28;20175;-82
2021/07/19 02:05:52;;;;;;;4.45;4.07;;;20.40;99.90;;;;;;5052148;28;20191;-83
2021/07/19 02:08:19;;;;;;;9.30;4.50;;;20.20;99.90;;;;;;5053687;28;20216;-81
2021/07/19 02:10:52;;;;;;;5.30;4.80;;;20.10;99.90;;;;;;5053292;28;20190;-81
2021/07/19 02:13:20;;;;;;;7.38;4.82;;;20.10;99.90;;;;;;5052053;28;20215;-82
2021/07/19 02:15:48;;;;;;;5.82;4.78;;;20.10;99.90;;;;;;5051392;28;20187;-81
2021/07/19 02:18:15;;;;;;;11.80;5.40;;;20.20;99.90;;;;;;5053284;28;20171;-82
2021/07/19 02:20:43;;;;;;;7.60;4.40;;;20.30;99.90;;;;;;5052002;28;20174;-82
2021/07/19 02:23:10;;;;;;;9.18;4.57;;;20.20;99.90;;;;;;5053322;28;20179;-82
2021/07/19 02:25:38;;;;;;;4.93;4.53;;;20.10;99.90;;;;;;5053460;28;20261;-81
2021/07/19 02:28:07;;;;;;;5.10;4.60;;;19.90;99.90;;;;;;5051289;28;20269;-81
2021/07/19 02:30:34;;;;;;;5.88;5.30;;;20.00;99.90;;;;;;5050950;28;20155;-81
2021/07/19 02:33:00;;;;;;;5.95;5.07;;;20.00;99.90;;;;;;5051021;28;20202;-82
2021/07/19 02:35:27;;;;;;;5.65;5.05;;;20.00;99.90;;;;;;5051459;28;20202;-82
2021/07/19 02:37:56;;;;;;;6.05;5.45;;;20.00;99.90;;;;;;5052706;28;20217;-81
2021/07/19 02:40:24;;;;;;;5.05;4.65;;;20.10;99.90;;;;;;5052612;28;20171;-82
2021/07/19 02:42:56;;;;;;;5.18;4.68;;;20.10;99.90;;;;;;5051387;28;20178;-82
2021/07/19 02:45:24;;;;;;;6.70;4.35;;;19.90;99.90;;;;;;5053519;28;20744;-82
2021/07/19 02:47:50;;;;;;;5.38;4.22;;;20.00;99.90;;;;;;5053712;28;20302;-82
2021/07/19 02:50:25;;;;;;;4.55;4.15;;;20.10;99.90;;;;;;5053067;28;20163;-82
2021/07/19 02:52:56;;;;;;;4.80;4.40;;;20.10;99.90;;;;;;5052571;28;20155;-81
2021/07/19 02:55:22;;;;;;;6.32;4.38;;;20.00;99.90;;;;;;5052507;28;20682;-81
2021/07/19 02:57:48;;;;;;;5.60;5.00;;;20.00;99.90;;;;;;5052523;28;20167;-81
2021/07/19 03:00:16;;;;;;;5.30;4.90;;;20.10;99.90;;;;;;5052415;28;20650;-81
2021/07/19 03:02:52;;;;;;;8.88;5.57;;;20.00;99.90;;;;;;5056080;28;20167;-81
2021/07/19 03:05:22;;;;;;;8.10;4.82;;;19.90;99.90;;;;;;5055072;28;20187;-81
2021/07/19 03:07:53;;;;;;;9.23;5.88;;;19.80;99.90;;;;;;5055110;28;20597;-81
2021/07/19 03:10:22;;;;;;;5.28;4.88;;;19.90;99.90;;;;;;5056343;28;20713;-81
2021/07/19 03:12:50;;;;;;;5.07;4.68;;;19.80;99.90;;;;;;5054974;28;20224;-80
2021/07/19 03:15:16;;;;;;;5.88;5.38;;;19.80;99.90;;;;;;5054889;28;20278;-81
2021/07/19 03:17:44;;;;;;;8.93;5.63;;;19.80;99.90;;;;;;5054986;28;20258;-82
2021/07/19 03:20:12;;;;;;;6.00;5.40;;;19.80;99.90;;;;;;5054885;28;20254;-82
2021/07/19 03:22:39;;;;;;;7.85;6.00;;;19.80;99.90;;;;;;5056179;28;20155;-82
2021/07/19 03:25:10;;;;;;;7.68;5.93;;;19.80;99.90;;;;;;5055731;28;20190;-81
2021/07/19 03:27:37;;;;;;;5.90;5.30;;;19.70;99.90;;;;;;5055917;28;20174;-83
2021/07/19 03:30:05;;;;;;;6.07;5.03;;;19.60;99.90;;;;;;5056039;28;20175;-81
2021/07/19 03:32:32;;;;;;;7.75;6.55;;;19.50;99.90;;;;;;5056095;28;20175;-81
2021/07/19 03:34:58;;;;;;;10.80;5.32;;;19.50;99.90;;;;;;5055899;28;20734;-81
2021/07/19 03:37:25;;;;;;;7.22;6.45;;;19.60;99.90;;;;;;5055794;28;20238;-81
2021/07/19 03:39:52;;;;;;;7.28;6.50;;;19.70;99.90;;;;;;5054573;28;20639;-82
2021/07/19 03:42:19;;;;;;;6.72;6.07;;;19.60;99.90;;;;;;5056024;28;20163;-82
2021/07/19 03:44:45;;;;;;;9.95;6.50;;;19.50;99.90;;;;;;5054516;28;20290;-81
2021/07/19 03:47:13;;;;;;;6.78;6.18;;;19.50;99.90;;;;;;5054421;28;20221;-82
2021/07/19 03:49:40;;;;;;;7.13;5.93;;;19.60;99.90;;;;;;5055826;28;20167;-81
2021/07/19 03:52:06;;;;;;;8.43;6.47;;;19.50;99.90;;;;;;5054461;28;20636;-81
2021/07/19 03:54:35;;;;;;;12.88;7.07;;;19.60;99.90;;;;;;5054691;28;20219;-82
2021/07/19 03:57:02;;;;;;;7.35;6.65;;;19.50;99.90;;;;;;5056052;28;20292;-82
2021/07/19 03:59:28;;;;;;;9.05;7.00;;;19.50;99.90;;;;;;5054417;28;20163;-82
2021/07/19 04:01:55;;;;;;;7.63;6.32;;;19.50;99.90;;;;;;5055719;28;20170;-82
2021/07/19 04:04:32;;;;;;;6.90;6.25;;;19.50;99.90;;;;;;5055590;28;20678;-81
2021/07/19 04:07:02;;;;;;;7.28;5.95;;;19.20;99.90;;;;;;5054256;28;20217;-82
2021/07/19 04:09:29;;;;;;;6.90;6.03;;;18.90;99.90;;;;;;5054600;28;20238;-82
2021/07/19 04:11:55;;;;;;;7.10;6.30;;;18.80;99.90;;;;;;5055276;28;20171;-82
2021/07/19 04:14:22;;;;;;;10.18;7.72;;;19.20;99.90;;;;;;5054476;28;20206;-81
2021/07/19 04:16:48;;;;;;;6.85;6.18;;;19.30;99.90;;;;;;5054431;28;20213;-82
2021/07/19 04:19:14;;;;;;;9.48;6.03;;;19.50;99.90;;;;;;5054070;28;20688;-81
2021/07/19 04:21:40;;;;;;;8.20;7.50;;;19.40;99.90;;;;;;5054950;28;20254;-81
2021/07/19 04:24:08;;;;;;;8.27;7.35;;;19.30;99.90;;;;;;5053780;28;20326;-82
2021/07/19 04:26:36;;;;;;;7.30;6.60;;;19.20;99.90;;;;;;5053699;28;20182;-82
2021/07/19 04:29:02;;;;;;;8.93;6.60;;;19.20;99.90;;;;;;5053649;28;20171;-81
2021/07/19 04:31:28;;;;;;;8.20;6.85;;;19.30;99.90;;;;;;5053503;28;20167;-81
2021/07/19 04:33:54;;;;;;;8.20;6.47;;;19.50;99.90;;;;;;5053330;28;20217;-82
2021/07/19 04:36:20;;;;;;;8.57;6.95;;;19.50;99.90;;;;;;5054530;28;20170;-81
2021/07/19 04:38:46;;;;;;;6.78;5.82;;;19.50;99.90;;;;;;5053724;28;20590;-82
2021/07/19 04:41:16;;;;;;;12.55;6.72;;;19.50;99.90;;;;;;5054498;28;20510;-80
2021/07/19 04:43:42;;;;;;;10.60;7.03;;;19.50;99.90;;;;;;5053375;28;20209;-79
2021/07/19 04:46:08;;;;;;;7.82;7.05;;;19.70;99.90;;;;;;5053346;28;20207;-80
2021/07/19 04:48:33;;;;;;;14.73;8.00;;;19.70;99.90;;;;;;5053258;28;20175;-80
2021/07/19 04:50:59;;;;;;;7.30;6.53;;;19.60;99.90;;;;;;5053851;28;20765;-80
2021/07/19 04:53:25;;;;;;;11.40;6.75;;;19.70;99.90;;;;;;5055394;28;20282;-81
2021/07/19 04:55:53;;;;;;;10.13;6.90;;;19.70;99.90;;;;;;5054322;28;20547;-82
2021/07/19 04:58:22;;;;;;;8.60;6.65;;;19.60;99.90;;;;;;5055506;28;20171;-82
2021/07/19 05:00:54;;;;;;;8.95;7.15;;;19.20;99.90;;;;;;5054064;28;20205;-82
2021/07/19 05:03:25;;;;;;;12.98;6.63;;;19.20;99.90;;;;;;5055512;28;20171;-82
2021/07/19 05:05:53;;;;;;;8.55;6.50;;;19.10;99.90;;;;;;5058030;28;20186;-81
2021/07/19 05:08:20;;;;;;;10.13;7.47;;;19.10;99.90;;;;;;5065071;28;20154;-82
2021/07/19 05:10:47;;;;;;;8.00;7.20;;;19.10;99.90;;;;;;5063235;28;20170;-83
2021/07/19 05:13:14;;;;;;;13.35;6.68;;;19.00;99.90;;;;;;5060859;28;20202;-81
2021/07/19 05:15:45;;;;;;;7.15;6.50;;;19.20;99.90;;;;;;5064098;28;20242;-81
2021/07/19 05:18:11;;;;;;;9.65;7.43;;;19.30;99.90;;;;;;5067697;28;20546;-81
2021/07/19 05:20:39;;;;;;;16.17;8.45;;;19.50;99.90;;;;;;5062181;28;20658;-79
2021/07/19 05:23:05;;;;;;;11.10;7.45;;;19.20;99.90;;;;;;5063085;28;20160;-81
2021/07/19 05:25:32;;;;;;;8.10;7.13;;;19.10;99.90;;;;;;5065208;28;20255;-81
2021/07/19 05:27:58;;;;;;;9.77;7.38;;;19.30;99.90;;;;;;5059622;28;20526;-81
2021/07/19 05:30:26;;;;;;;9.63;7.00;;;19.50;99.90;;;;;;5055451;28;20190;-82
2021/07/19 05:32:52;;;;;;;8.02;6.55;;;19.70;99.90;;;;;;5055072;28;20214;-82
2021/07/19 05:35:18;;;;;;;7.93;7.07;;;19.80;99.90;;;;;;5053652;28;20221;-82
2021/07/19 05:37:45;;;;;;;7.43;6.25;;;19.80;99.90;;;;;;5054500;28;20164;-81
2021/07/19 05:40:11;;;;;;;12.55;7.18;;;19.70;99.90;;;;;;5052750;28;20181;-81
2021/07/19 05:42:39;;;;;;;8.65;6.85;;;19.60;99.90;;;;;;5053450;28;20714;-81
2021/07/19 05:45:05;;;;;;;8.43;7.43;;;19.70;99.90;;;;;;5052323;28;20236;-80
2021/07/19 05:47:31;;;;;;;11.15;6.75;;;19.60;99.90;;;;;;5052773;28;20203;-81
2021/07/19 05:49:56;;;;;;;13.38;7.72;;;19.50;99.90;;;;;;5053922;28;20524;-82
2021/07/19 05:52:22;;;;;;;7.43;6.72;;;19.50;99.90;;;;;;5051858;28;20175;-82
2021/07/19 05:54:47;;;;;;;9.70;6.60;;;19.50;99.90;;;;;;5051934;28;20690;-81
2021/07/19 05:57:13;;;;;;;7.60;6.80;;;19.60;99.90;;;;;;5053155;28;20198;-81
2021/07/19 05:59:39;;;;;;;12.82;6.63;;;19.70;99.90;;;;;;5051936;28;20526;-82
2021/07/19 06:02:04;;;;;;;14.60;6.78;;;19.90;99.90;;;;;;5051558;28;20167;-82
2021/07/19 06:04:30;;;;;;;9.13;6.65;;;19.90;99.90;;;;;;5052908;28;20194;-81
2021/07/19 06:06:56;;;;;;;10.43;7.57;;;19.90;99.90;;;;;;5053091;28;20170;-82
2021/07/19 06:09:21;;;;;;;11.23;7.78;;;20.20;99.90;;;;;;5052729;28;20167;-82
2021/07/19 06:11:47;;;;;;;8.75;7.95;;;20.20;99.90;;;;;;5051723;28;20175;-82
2021/07/19 06:14:12;;;;;;;13.88;7.75;;;20.00;99.90;;;;;;5051635;28;20307;-82
2021/07/19 06:16:39;;;;;;;17.55;7.82;;;20.00;99.90;;;;;;5051369;28;20171;-82
2021/07/19 06:19:04;;;;;;;12.23;8.52;;;20.00;99.90;;;;;;5051517;28;20181;-81
2021/07/19 06:21:30;;;;;;;11.05;8.52;;;20.00;99.90;;;;;;5052793;28;20171;-82
2021/07/19 06:23:56;;;;;;;26.58;8.40;;;19.90;99.90;;;;;;5052979;28;20171;-81
2021/07/19 06:26:21;;;;;;;21.17;8.93;;;19.90;99.90;;;;;;5053239;28;20172;-82
2021/07/19 06:28:47;;;;;;;10.68;7.78;;;20.10;99.90;;;;;;5051691;28;20201;-81
2021/07/19 06:31:13;;;;;;;14.00;8.20;;;20.20;99.90;;;;;;5053029;28;20164;-81
2021/07/19 06:33:39;;;;;;;16.70;8.40;;;20.20;99.90;;;;;;5051765;28;20217;-82
2021/07/19 06:36:04;;;;;;;9.85;7.20;;;20.30;99.90;;;;;;5051822;28;20187;-81
2021/07/19 06:38:30;;;;;;;8.68;7.70;;;20.40;99.90;;;;;;5051407;28;20175;-83
2021/07/19 06:40:56;;;;;;;12.85;7.60;;;20.40;99.90;;;;;;5051344;28;20171;-83
2021/07/19 06:43:21;;;;;;;8.77;7.80;;;20.40;99.90;;;;;;5051580;28;20191;-81
2021/07/19 06:45:47;;;;;;;11.38;7.22;;;20.50;99.90;;;;;;5052263;28;20183;-82
2021/07/19 06:48:14;;;;;;;10.57;7.65;;;20.60;99.90;;;;;;5052433;28;20202;-82
2021/07/19 06:50:41;;;;;;;16.85;7.28;;;20.70;99.90;;;;;;5051197;28;20175;-83
2021/07/19 06:53:07;;;;;;;7.80;6.80;;;20.70;99.90;;;;;;5051100;28;20190;-82
2021/07/19 06:55:33;;;;;;;11.98;7.03;;;20.80;99.90;;;;;;5050853;28;20690;-82
2021/07/19 06:57:58;;;;;;;10.25;7.05;;;20.80;99.90;;;;;;5050900;28;20182;-82
2021/07/19 07:00:24;;;;;;;6.68;5.95;;;20.70;99.90;;;;;;5051882;28;20183;-81
2021/07/19 07:02:50;;;;;;;6.90;5.93;;;20.80;99.90;;;;;;5050816;28;20167;-82
2021/07/19 07:05:15;;;;;;;7.47;5.68;;;20.80;99.90;;;;;;5051433;28;20571;-82
2021/07/19 07:07:42;;;;;;;17.90;5.72;;;20.70;99.90;;;;;;5052475;28;20171;-82
2021/07/19 07:10:09;;;;;;;9.30;6.22;;;21.00;99.90;;;;;;5050960;28;20619;-83
2021/07/19 07:12:36;;;;;;;7.32;6.05;;;21.10;99.90;;;;;;5051058;28;20167;-81
2021/07/19 07:15:02;;;;;;;6.18;5.43;;;21.30;99.90;;;;;;5051200;28;20260;-80
2021/07/19 07:17:28;;;;;;;6.40;5.10;;;21.50;99.90;;;;;;5052067;28;20525;-81
2021/07/19 07:19:54;;;;;;;7.45;5.22;;;21.70;99.90;;;;;;5052204;28;20171;-81
2021/07/19 07:22:20;;;;;;;10.40;4.70;;;22.20;99.90;;;;;;5050867;28;20254;-81
2021/07/19 07:24:46;;;;;;;7.13;4.50;;;22.90;99.90;;;;;;5052124;28;20596;-82
2021/07/19 07:27:13;;;;;;;8.60;4.90;;;23.40;99.90;;;;;;5051129;28;20229;-82
2021/07/19 07:29:39;;;;;;;7.22;4.57;;;24.10;99.90;;;;;;5052494;28;20526;-82
2021/07/19 07:32:05;;;;;;;10.35;3.30;;;24.10;99.90;;;;;;5051374;28;20665;-82
2021/07/19 07:34:31;;;;;;;4.05;3.65;;;24.20;99.90;;;;;;5051556;28;20214;-81
2021/07/19 07:36:57;;;;;;;4.65;3.00;;;24.40;99.90;;;;;;5051745;28;20536;-84
2021/07/19 07:39:22;;;;;;;5.20;3.13;;;24.40;99.90;;;;;;5051134;28;20175;-82
2021/07/19 07:41:48;;;;;;;7.25;2.80;;;24.70;99.90;;;;;;5051820;28;20166;-81
2021/07/19 07:44:14;;;;;;;4.07;3.47;;;24.10;99.90;;;;;;5051577;28;20222;-81
2021/07/19 07:46:42;;;;;;;7.65;3.38;;;24.30;99.90;;;;;;5052672;28;20207;-81
2021/07/19 07:49:08;;;;;;;3.42;3.10;;;24.60;99.90;;;;;;5054526;28;20582;-82
2021/07/19 07:51:34;;;;;;;10.77;4.32;;;25.00;99.90;;;;;;5055804;28;20240;-81
2021/07/19 07:53:59;;;;;;;5.40;3.50;;;24.60;99.90;;;;;;5055410;28;20614;-82
2021/07/19 07:56:26;;;;;;;8.88;3.35;;;24.10;99.90;;;;;;5054151;28;20262;-82
2021/07/19 07:58:52;;;;;;;8.35;3.38;;;23.90;99.90;;;;;;5055561;28;20167;-82
2021/07/19 08:01:17;;;;;;;13.55;4.15;;;23.60;99.90;;;;;;5054090;28;20174;-82
2021/07/19 08:03:43;;;;;;;8.25;3.28;;;23.30;99.90;;;;;;5054180;28;20677;-81
2021/07/19 08:06:08;;;;;;;7.30;4.05;;;23.20;99.90;;;;;;5053907;28;20281;-82
2021/07/19 08:08:34;;;;;;;7.85;2.83;;;23.20;99.90;;;;;;5054174;28;20167;-81
2021/07/19 08:11:00;;;;;;;6.55;3.45;;;23.00;99.90;;;;;;5054935;28;20217;-81
2021/07/19 08:13:26;;;;;;;7.05;2.85;;;23.00;99.90;;;;;;5055379;28;20195;-82
2021/07/19 08:15:52;;;;;;;7.20;3.33;;;23.00;99.90;;;;;;5053713;28;20191;-82
2021/07/19 08:18:20;;;;;;;5.38;3.80;;;23.10;99.90;;;;;;5055203;28;20238;-83
2021/07/19 08:20:46;;;;;;;7.40;3.58;;;23.10;99.90;;;;;;5055105;28;20167;-82
2021/07/19 08:23:12;;;;;;;9.85;3.65;;;23.10;99.90;;;;;;5053794;28;20242;-80
2021/07/19 08:25:38;;;;;;;5.30;3.80;;;22.90;99.90;;;;;;5053713;28;20191;-81
2021/07/19 08:28:04;;;;;;;6.10;3.33;;;23.00;99.90;;;;;;5053697;28;20171;-81
2021/07/19 08:30:30;;;;;;;5.72;2.90;;;23.20;99.90;;;;;;5053709;28;20182;-81
2021/07/19 08:32:57;;;;;;;3.78;2.53;;;23.30;99.90;;;;;;5054709;28;20558;-82
2021/07/19 08:35:23;;;;;;;4.10;2.78;;;23.60;99.90;;;;;;5053425;28;20226;-82
2021/07/19 08:37:49;;;;;;;3.97;2.72;;;23.60;99.90;;;;;;5055076;28;20605;-81
2021/07/19 08:40:20;;;;;;;8.30;2.85;;;23.70;99.90;;;;;;5054662;28;20522;-82
2021/07/19 08:42:46;;;;;;;3.47;3.17;;;23.60;99.90;;;;;;5053064;28;20628;-81
2021/07/19 08:45:12;;;;;;;5.20;2.90;;;23.60;99.90;;;;;;5053187;28;20195;-81
2021/07/19 08:47:39;;;;;;;8.73;2.67;;;23.60;99.90;;;;;;5053277;28;20159;-82
2021/07/19 08:50:07;;;;;;;6.85;2.60;;;23.70;99.90;;;;;;5054792;28;20163;-82
2021/07/19 08:52:34;;;;;;;5.65;3.03;;;23.70;99.90;;;;;;5054405;28;20167;-82
2021/07/19 08:55:01;;;;;;;3.92;2.50;;;23.70;99.90;;;;;;5054391;28;20210;-82
2021/07/19 08:57:27;;;;;;;5.85;2.45;;;23.60;99.90;;;;;;5053330;28;20172;-82
2021/07/19 08:59:54;;;;;;;7.38;2.50;;;23.70;99.90;;;;;;5053965;28;20168;-81
2021/07/19 09:02:20;;;;;;;7.55;2.65;;;23.80;99.90;;;;;;5052767;28;20167;-81
2021/07/19 09:04:45;;;;;;;6.55;2.65;;;23.70;99.90;;;;;;5052816;28;20281;-82
2021/07/19 09:07:24;;;;;;;2.85;2.65;;;24.10;99.90;;;;;;5052650;28;20175;-83
2021/07/19 09:09:51;;;;;;;4.35;3.03;;;24.30;99.90;;;;;;5052623;28;20263;-83
2021/07/19 09:12:28;;;;;;;5.30;2.80;;;24.10;99.90;;;;;;5052587;28;20250;-82
2021/07/19 09:14:56;;;;;;;5.40;2.90;;;24.00;99.90;;;;;;5052495;28;20704;-83
2021/07/19 09:17:27;;;;;;;3.80;3.50;;;24.10;99.90;;;;;;5053783;28;20659;-82
2021/07/19 09:19:54;;;;;;;2.75;2.55;;;24.00;99.90;;;;;;5052622;28;20229;-83
2021/07/19 09:22:37;;;;;;;5.72;2.83;;;23.90;99.90;;;;;;5054087;28;20155;-83
2021/07/19 09:25:10;;;;;;;4.20;2.60;;;23.90;99.90;;;;;;5054689;28;20230;-83
2021/07/19 09:27:39;;;;;;;5.03;2.50;;;23.90;99.90;;;;;;5053658;28;20172;-82
2021/07/19 09:30:46;;;;;;;2.95;2.33;;;24.10;99.90;;;;;;5052060;28;20265;-82
2021/07/19 09:33:22;;;;;;;9.02;3.17;;;24.30;99.90;;;;;;5053270;28;20345;-83
2021/07/19 09:35:52;;;;;;;5.03;2.20;;;24.30;99.90;;;;;;5051882;28;20257;-82
2021/07/19 09:38:19;;;;;;;8.25;3.63;;;24.40;99.90;;;;;;5053730;28;20603;-82
2021/07/19 09:40:47;;;;;;;5.47;2.53;;;24.20;99.90;;;;;;5053270;28;20183;-81
2021/07/19 09:43:22;;;;;;;5.13;2.65;;;24.30;99.90;;;;;;5053516;28;20207;-81
2021/07/19 09:46:03;;;;;;;2.33;2.13;;;24.40;99.90;;;;;;5051887;28;20210;-82
2021/07/19 09:48:30;;;;;;;2.88;2.53;;;24.50;99.90;;;;;;5051973;28;20232;-82
2021/07/19 09:50:56;;;;;;;2.60;2.40;;;24.80;99.90;;;;;;5053287;28;20238;-82
2021/07/19 09:53:33;;;;;;;8.10;2.70;;;24.90;99.90;;;;;;5053167;28;20211;-82
2021/07/19 09:56:06;;;;;;;4.53;2.40;;;24.30;99.90;;;;;;5053062;28;20262;-82
2021/07/19 09:58:32;;;;;;;3.28;2.50;;;24.20;99.90;;;;;;5053265;28;20171;-82
2021/07/19 10:00:57;;;;;;;9.07;2.38;;;24.40;99.90;;;;;;5051462;28;20267;-82
2021/07/19 10:03:25;;;;;;;5.68;2.10;;;24.70;99.90;;;;;;5052982;28;20170;-83
2021/07/19 10:05:51;;;;;;;4.00;2.85;;;24.90;99.90;;;;;;5052693;28;20195;-81
2021/07/19 10:08:22;;;;;;;4.07;2.55;;;25.00;99.90;;;;;;5051797;28;20163;-80
2021/07/19 10:10:48;;;;;;;3.58;2.58;;;24.90;99.90;;;;;;5050883;28;20171;-81
2021/07/19 10:13:16;;;;;;;3.67;2.28;;;24.80;99.90;;;;;;5052970;28;20272;-82
2021/07/19 10:15:43;;;;;;;3.40;2.22;;;24.70;99.90;;;;;;5052718;28;20198;-82
2021/07/19 10:18:10;;;;;;;2.83;2.55;;;24.60;99.90;;;;;;5052596;28;20171;-81
2021/07/19 10:20:38;;;;;;;7.20;2.72;;;24.90;99.90;;;;;;5053998;28;20513;-82
2021/07/19 10:23:06;;;;;;;4.90;2.63;;;24.80;99.90;;;;;;5053654;28;20178;-82
2021/07/19 10:25:37;;;;;;;4.15;2.30;;;24.80;99.90;;;;;;5053813;28;20548;-82
2021/07/19 10:28:03;;;;;;;2.92;2.28;;;24.90;99.90;;;;;;5052679;28;20190;-82
2021/07/19 10:30:29;;;;;;;6.15;2.33;;;24.80;99.90;;;;;;5053313;28;20576;-82
2021/07/19 10:32:56;;;;;;;4.47;2.20;;;24.60;99.90;;;;;;5053419;28;20182;-82
2021/07/19 10:35:27;;;;;;;2.30;2.10;;;24.70;99.90;;;;;;5052378;28;20321;-83
2021/07/19 10:38:02;;;;;;;4.32;2.80;;;24.80;99.90;;;;;;5052243;28;20631;-82
2021/07/19 10:40:29;;;;;;;4.63;2.63;;;24.90;99.90;;;;;;5053540;28;20216;-83
2021/07/19 10:43:13;;;;;;;2.85;2.65;;;24.90;99.90;;;;;;5052349;28;20263;-82
2021/07/19 10:45:53;;;;;;;3.50;2.22;;;24.90;99.90;;;;;;5051433;28;20562;-82
2021/07/19 10:48:30;;;;;;;3.35;2.00;;;24.80;99.90;;;;;;5052172;28;20480;-82
2021/07/19 10:51:00;;;;;;;3.25;2.00;;;24.60;99.90;;;;;;5051767;28;20205;-83
2021/07/19 10:53:35;;;;;;;3.67;2.50;;;24.70;99.90;;;;;;5051601;28;20565;-82
2021/07/19 10:56:23;;;;;;;4.10;2.72;;;24.80;99.90;;;;;;5053073;28;20269;-83
2021/07/19 10:58:49;;;;;;;4.88;2.97;;;25.10;99.90;;;;;;5051430;28;20182;-83
2021/07/19 11:01:50;;;;;;;3.25;2.65;;;25.30;99.90;;;;;;5053522;28;20168;-83
2021/07/19 11:04:16;;;;;;;4.05;2.33;;;25.10;99.90;;;;;;5053387;28;20195;-82
2021/07/19 11:06:47;;;;;;;5.05;2.95;;;24.90;99.90;;;;;;5052345;28;20175;-81
2021/07/19 11:09:14;;;;;;;4.75;2.92;;;25.10;99.90;;;;;;5052174;28;20179;-83
2021/07/19 11:11:44;;;;;;;5.65;3.28;;;25.30;99.90;;;;;;5052295;28;20195;-82
2021/07/19 11:14:20;;;;;;;6.47;2.58;;;25.40;99.90;;;;;;5052528;28;20199;-82
2021/07/19 11:16:53;;;;;;;6.90;2.65;;;25.30;99.90;;;;;;5051088;28;20162;-84
2021/07/19 11:19:36;;;;;;;2.58;2.38;;;25.30;99.90;;;;;;5052909;28;20163;-82
2021/07/19 11:22:46;;;;;;;3.42;2.20;;;25.40;99.90;;;;;;5052586;28;20159;-82
2021/07/19 11:25:16;;;;;;;4.38;2.92;;;25.30;99.90;;;;;;5056013;28;20202;-85
2021/07/19 11:27:44;;;;;;;4.40;3.08;;;25.40;99.90;;;;;;5055621;28;20187;-82
2021/07/19 11:30:17;;;;;;;4.90;2.97;;;25.20;99.90;;;;;;5055634;28;20179;-83
2021/07/19 11:32:43;;;;;;;7.32;2.80;;;25.30;99.90;;;;;;5056385;28;20607;-82
2021/07/19 11:35:17;;;;;;;8.85;3.13;;;25.40;99.90;;;;;;5055859;28;20632;-83
2021/07/19 11:37:45;;;;;;;7.45;2.92;;;25.40;99.90;;;;;;5056273;28;20163;-82
2021/07/19 11:40:13;;;;;;;3.13;2.70;;;25.50;99.90;;;;;;5054522;28;20708;-82
2021/07/19 11:42:42;;;;;;;4.82;2.75;;;25.50;99.90;;;;;;5054145;28;20658;-83
2021/07/19 11:45:17;;;;;;;5.30;3.25;;;25.60;99.90;;;;;;5053719;28;20222;-82
2021/07/19 11:47:59;;;;;;;3.13;2.60;;;25.70;99.90;;;;;;5055567;28;20182;-82
2021/07/19 11:50:28;;;;;;;7.28;3.03;;;25.70;99.90;;;;;;5055678;28;20576;-84
2021/07/19 11:52:54;;;;;;;3.13;2.83;;;25.80;99.90;;;;;;5054012;28;20167;-83
2021/07/19 11:55:24;;;;;;;7.38;3.33;;;26.10;99.90;;;;;;5055742;28;20202;-83
2021/07/19 11:57:51;;;;;;;6.05;3.03;;;26.10;99.90;;;;;;5055491;28;20167;-83
2021/07/19 12:00:35;;;;;;;3.97;3.00;;;26.00;99.90;;;;;;5055301;28;20160;-83
2021/07/19 12:03:15;;;;;;;8.23;3.17;;;26.00;99.90;;;;;;5055370;28;20168;-82
2021/07/19 12:05:55;;;;;;;3.78;2.95;;;25.90;99.90;;;;;;5055444;28;20678;-83
2021/07/19 12:08:26;;;;;;;3.50;3.17;;;25.80;99.90;;;;;;5055368;28;20171;-83
2021/07/19 12:10:58;;;;;;;3.78;3.03;;;25.70;99.90;;;;;;5054174;28;20167;-83
2021/07/19 12:13:24;;;;;;;3.85;2.65;;;25.70;99.90;;;;;;5055000;28;20214;-83
2021/07/19 12:15:54;;;;;;;4.97;2.90;;;25.80;99.90;;;;;;5054869;28;20659;-83
2021/07/19 12:18:26;;;;;;;3.70;2.83;;;25.80;99.90;;;;;;5053572;28;20538;-83
2021/07/19 12:20:56;;;;;;;3.88;3.13;;;25.90;99.90;;;;;;5053740;28;20179;-83
2021/07/19 12:23:22;;;;;;;5.47;3.78;;;25.70;99.90;;;;;;5054944;28;20220;-83
2021/07/19 12:25:57;;;;;;;5.80;2.72;;;25.80;99.90;;;;;;5054730;28;20278;-83
2021/07/19 12:28:23;;;;;;;8.10;4.03;;;25.70;99.90;;;;;;5055141;28;20171;-83
2021/07/19 12:30:49;;;;;;;4.97;3.92;;;25.90;99.90;;;;;;5053668;28;20183;-83
2021/07/19 12:33:22;;;;;;;3.63;3.30;;;26.10;99.90;;;;;;5053665;28;20607;-82
2021/07/19 12:35:51;;;;;;;4.60;3.33;;;26.10;99.90;;;;;;5053490;28;20203;-83
2021/07/19 12:38:17;;;;;;;6.65;3.30;;;26.00;99.90;;;;;;5053462;28;20253;-82
2021/07/19 12:40:43;;;;;;;4.45;3.15;;;25.90;99.90;;;;;;5053309;28;20282;-83
2021/07/19 12:43:09;;;;;;;5.25;3.20;;;25.90;99.90;;;;;;5053407;28;20550;-84
2021/07/19 12:45:35;;;;;;;3.92;3.30;;;25.90;99.90;;;;;;5054655;28;20659;-83
2021/07/19 12:48:01;;;;;;;6.35;3.08;;;25.90;99.90;;;;;;5053600;28;20189;-83
2021/07/19 12:50:27;;;;;;;3.97;3.10;;;25.90;99.90;;;;;;5053211;28;20717;-83
2021/07/19 12:52:52;;;;;;;8.13;3.65;;;26.10;99.90;;;;;;5054888;28;20171;-83